METAR stanice u blizini

 

LYBE - Beograd / Surčin, Srbija
Ažurirano: 10/04/2020 22:00
Vedro
Vedro
 Pravac vetra S
Vetar: S 13 km/h
Temperatura: 14°C
Tačka rose: 1°C
Vlažnost: 41%
Pritisak: 1021 hPa
Pregled: Vedro
Vidljivost: greater than 10 km
2020/04/10 20:00 LYBE 102000Z 35007KT CAVOK 14/01 Q1021 NOSIG
LYBT - Beograd / Batajnica, Srbija
Ažurirano: 10/04/2020 22:00
Vedro
Vedro
 Pravac vetra SZ
Vetar: SZ 15 km/h
Temperatura: 13°C
Tačka rose: 0°C
Vlažnost: 41%
Pritisak: 1020 hPa
Pregled: Vedro
Vidljivost: greater than 10 km
2020/04/10 20:00 LYBT 102000Z 31008KT CAVOK 13/M00 Q1020 NOSIG
LYVR - Vršac, Srbija
Ažurirano: 10/04/2020 22:00
Vedro
Vedro
 Pravac vetra SSI
Vetar: SSI 11 km/h
Temperatura: 14°C
Tačka rose: 3°C
Vlažnost: 48%
Pritisak: 1020 hPa
Pregled: Vedro
Vidljivost: greater than 10 km
2020/04/10 20:00 LYVR 102000Z AUTO 02006KT CAVOK 14/03 Q1020
 
LYKV - Lađevci, Srbija
Ažurirano: 10/04/2020 22:00
Vedro
Vedro
 Pravac vetra varies
Vetar: varies 4 km/h
Temperatura: 12°C
Tačka rose: 2°C
Vlažnost: 51%
Pritisak: 1021 hPa
Pregled: Vedro
Vidljivost: greater than 10 km
2020/04/10 20:00 LYKV 102000Z VRB02KT CAVOK 12/02 Q1021 NOSIG
LYNI - Niš, Srbija
Ažurirano: 10/04/2020 22:00
Vedro
Vedro
 Pravac vetra SZ
Vetar: SZ 6 km/h
Temperatura: 12°C
Tačka rose: -1°C
Vlažnost: 41%
Pritisak: 1020 hPa
Pregled: Vedro
Vidljivost: greater than 10 km
2020/04/10 20:00 LYNI 102000Z 32003KT 280V350 CAVOK 12/M01 Q1020 NOSIG
BKPR - Priština, Srbija
Ažurirano: 10/04/2020 22:30
Vedro
Vedro
 Pravac vetra varies
Vetar: varies 6 km/h
Temperatura: 11°C
Tačka rose: -4°C
Vlažnost: 35%
Pritisak: 1021 hPa
Pregled: Vedro
Vidljivost: greater than 10 km
2020/04/10 20:30 BKPR 102030Z VRB03KT CAVOK 11/M04 Q1021 NOSIG
 
LHPP - Pecs / Pogany, Hungary
Ažurirano: 10/04/2020 19:45
NOT Current
Vedro
Vedro
 Pravac vetra SSZ
Vetar: SSZ 9 km/h
Temperatura: 17°C
Tačka rose: 3°C
Vlažnost: 39%
Pritisak: 1020 hPa
Pregled: Vedro
Vidljivost: greater than 10 km
2020/04/10 17:45 LHPP 101745Z 33005KT CAVOK 17/03 Q1020
LHUD - Szeged, Hungary
Ažurirano: 04/07/2019 01:45
NOT Current
Vedro
Vedro
 Pravac vetra S
Vetar: S 7 km/h
Temperatura: 18°C
Tačka rose: 13°C
Vlažnost: 73%
Pritisak: 1019 hPa
Pregled: Vedro
Vidljivost: greater than 10 km
2019/07/03 23:45 LHUD 032345Z 35004KT CAVOK 18/13 Q1019
LRTR - Timisoara, Romania
Ažurirano: 10/04/2020 22:00
Vedro
Vedro
 Pravac vetra varies
Vetar: varies 4 km/h
Temperatura: 10°C
Tačka rose: 2°C
Vlažnost: 58%
Pritisak: 1020 hPa
Pregled: Vedro
Vidljivost: greater than 10 km
2020/04/10 20:00 LRTR 102000Z VRB02KT CAVOK 10/02 Q1020
 
LRCV - Craiova, Romania
Ažurirano: 10/04/2020 22:00
Vedro
Vedro
 Pravac vetra SZ
Vetar: SZ 9 km/h
Temperatura: 14°C
Tačka rose: 1°C
Vlažnost: 41%
Pritisak: 1016 hPa
Pregled: Vedro
Vidljivost: greater than 10 km
2020/04/10 20:00 LRCV 102000Z 32005KT CAVOK 14/01 Q1016
LBSF - Sofia, Bulgaria
Ažurirano: 10/04/2020 22:00
Partly Cloudy
Partly Cloudy
 Pravac vetra varies
Vetar: varies 4 km/h
Temperatura: 11°C
Tačka rose: -2°C
Vlažnost: 41%
Pritisak: 1019 hPa
Oblaci: Partly Cloudy
Vidljivost: 8 km
2020/04/10 20:00 LBSF 102000Z VRB02KT 8000 NSC 11/M02 Q1019 NOSIG
LWSK - Skoplje, Makedonija
Ažurirano: 10/04/2020 22:00
Vedro
Vedro
 Pravac vetra calm
Vetar: Tišina
Temperatura: 14°C
Tačka rose: 1°C
Vlažnost: 41%
Pritisak: 1019 hPa
Pregled: Vedro
Vidljivost: greater than 10 km
2020/04/10 20:00 LWSK 102000Z 00000KT CAVOK 14/01 Q1019 NOSIG
 
LYPG - Podgorica, Crna Gora
Ažurirano: 10/04/2020 22:00
Vedro
Vedro
 Pravac vetra Z
Vetar: Z 7 km/h
Temperatura: 16°C
Tačka rose: 3°C
Vlažnost: 42%
Pritisak: 1019 hPa
Pregled: Vedro
Vidljivost: greater than 10 km
2020/04/10 20:00 LYPG 102000Z 27004KT CAVOK 16/03 Q1019 NOSIG
LQSA - Sarajevo, Bosna i Hercegovina
Ažurirano: 10/04/2020 19:00
NOT Current
Vedro
Vedro
 Pravac vetra S
Vetar: S 6 km/h
Temperatura: 19°C
Tačka rose: -2°C
Vlažnost: 24%
Pritisak: 1020 hPa
Pregled: Vedro
Vidljivost: greater than 10 km
2020/04/10 17:00 LQSA 101700Z 01003KT 310V050 CAVOK 19/M02 Q1020 NOSIG
LDOS - Osijek, Hrvatksa
Ažurirano: 10/04/2020 22:00
Vedro
Vedro
 Pravac vetra S
Vetar: S 7 km/h
Temperatura: 13°C
Tačka rose: 2°C
Vlažnost: 47%
Pritisak: 1021 hPa
Pregled: Vedro
Vidljivost: greater than 10 km
2020/04/10 20:00 LDOS 102000Z 36004KT CAVOK 13/02 Q1021